Time;durP1;ratioP1;P1;durP2;ratioP2;P2;SDS_P1;SDS_P2;PMS_P1;PMS_P2;Temp;Humidity;BMP_temperature;BMP_pressure;BME280_temperature;BME280_humidity;BME280_pressure;Samples;Min_cycle;Max_cycle;Signal;HPM_P1;HPM_P2
2023/02/12 00:01:42;;;;;;;4.88;3.50;;;;;;;;;;5054142;28;20029;-50
2023/02/12 00:04:08;;;;;;;4.63;3.28;;;;;;;;;;5059768;28;20033;-47
2023/02/12 00:06:34;;;;;;;5.80;3.05;;;;;;;;;;5058151;28;20029;-51
2023/02/12 00:09:00;;;;;;;5.65;3.22;;;;;;;;;;5052552;28;20040;-50
2023/02/12 00:11:29;;;;;;;5.07;3.33;;;;;;;;;;5068217;28;20025;-49
2023/02/12 00:13:56;;;;;;;5.88;3.13;;;;;;;;;;5069144;28;20024;-49
2023/02/12 00:16:23;;;;;;;4.88;3.15;;;;;;;;;;5065550;28;20034;-47
2023/02/12 00:18:51;;;;;;;4.60;3.13;;;;;;;;;;5067677;28;20126;-51
2023/02/12 00:21:17;;;;;;;3.75;2.83;;;;;;;;;;5068470;28;20379;-48
2023/02/12 00:23:43;;;;;;;6.40;3.95;;;;;;;;;;5067008;28;20033;-48
2023/02/12 00:26:13;;;;;;;6.13;3.17;;;;;;;;;;5069794;28;20035;-48
2023/02/12 00:28:39;;;;;;;6.15;4.15;;;;;;;;;;5070655;28;20028;-49
2023/02/12 00:31:10;;;;;;;6.20;3.72;;;;;;;;;;5071412;28;20076;-50
2023/02/12 00:33:36;;;;;;;5.93;4.10;;;;;;;;;;5064065;28;20021;-48
2023/02/12 00:36:02;;;;;;;5.03;3.45;;;;;;;;;;5066747;28;20390;-49
2023/02/12 00:38:28;;;;;;;6.50;3.35;;;;;;;;;;5060842;28;20032;-51
2023/02/12 00:40:54;;;;;;;5.68;3.15;;;;;;;;;;5063024;28;20033;-50
2023/02/12 00:43:20;;;;;;;6.22;3.53;;;;;;;;;;5070739;28;20032;-45
2023/02/12 00:45:46;;;;;;;5.30;3.33;;;;;;;;;;5062013;28;20496;-50
2023/02/12 00:48:12;;;;;;;4.80;2.90;;;;;;;;;;5065605;28;20078;-48
2023/02/12 00:50:40;;;;;;;5.32;3.53;;;;;;;;;;5069265;28;20108;-52
2023/02/12 00:53:06;;;;;;;5.40;3.50;;;;;;;;;;5065270;28;20535;-49
2023/02/12 00:55:32;;;;;;;5.10;3.45;;;;;;;;;;5064309;28;20074;-51
2023/02/12 00:57:59;;;;;;;4.90;3.15;;;;;;;;;;5067389;28;20029;-48
2023/02/12 01:00:25;;;;;;;5.43;3.08;;;;;;;;;;5065454;28;20525;-50
2023/02/12 01:02:51;;;;;;;6.30;3.15;;;;;;;;;;5069241;28;20112;-52
2023/02/12 01:05:18;;;;;;;6.65;4.32;;;;;;;;;;5066336;28;20123;-49
2023/02/12 01:07:44;;;;;;;6.55;3.88;;;;;;;;;;5064776;28;20035;-50
2023/02/12 01:10:10;;;;;;;5.97;3.83;;;;;;;;;;5065453;28;20171;-52
2023/02/12 01:12:36;;;;;;;5.63;3.15;;;;;;;;;;5067006;28;20123;-47
2023/02/12 01:15:02;;;;;;;6.15;3.83;;;;;;;;;;5068156;28;20029;-51
2023/02/12 01:17:28;;;;;;;5.47;3.20;;;;;;;;;;5061462;28;20017;-51
2023/02/12 01:19:57;;;;;;;6.18;3.10;;;;;;;;;;5067701;28;20025;-50
2023/02/12 01:22:23;;;;;;;5.10;3.42;;;;;;;;;;5062661;28;20492;-52
2023/02/12 01:24:49;;;;;;;5.32;3.78;;;;;;;;;;5065720;28;20024;-48
2023/02/12 01:27:15;;;;;;;5.57;3.17;;;;;;;;;;5068860;28;20579;-52
2023/02/12 01:29:43;;;;;;;4.55;3.58;;;;;;;;;;5064384;28;20099;-51
2023/02/12 01:32:09;;;;;;;4.97;3.17;;;;;;;;;;5067247;28;20555;-50
2023/02/12 01:34:36;;;;;;;5.32;3.38;;;;;;;;;;5065242;28;20082;-52
2023/02/12 01:37:01;;;;;;;4.43;3.08;;;;;;;;;;5065047;28;20031;-50
2023/02/12 01:39:27;;;;;;;6.50;3.28;;;;;;;;;;5065761;28;20029;-51
2023/02/12 01:41:53;;;;;;;4.95;3.63;;;;;;;;;;5066572;28;20025;-49
2023/02/12 01:44:21;;;;;;;4.10;3.25;;;;;;;;;;5067409;28;20025;-45
2023/02/12 01:46:54;;;;;;;3.92;2.88;;;;;;;;;;5069101;28;20036;-46
2023/02/12 01:49:40;;;;;;;3.67;3.10;;;;;;;;;;5069258;28;20558;-46
2023/02/12 01:52:09;;;;;;;5.72;3.38;;;;;;;;;;5068103;28;20036;-51
2023/02/12 01:54:35;;;;;;;4.65;3.20;;;;;;;;;;5070461;28;20031;-48
2023/02/12 01:57:02;;;;;;;4.47;3.40;;;;;;;;;;5069838;28;20366;-51
2023/02/12 01:59:29;;;;;;;3.97;3.08;;;;;;;;;;5071030;28;20021;-48
2023/02/12 02:01:55;;;;;;;6.20;3.53;;;;;;;;;;5069772;28;20462;-50
2023/02/12 02:04:22;;;;;;;4.43;3.13;;;;;;;;;;5069448;28;20074;-46
2023/02/12 02:06:52;;;;;;;5.65;3.10;;;;;;;;;;5065189;28;20041;-52
2023/02/12 02:09:18;;;;;;;5.57;3.92;;;;;;;;;;5063370;28;20055;-45
2023/02/12 02:14:32;;;;;;;4.68;3.40;;;;;;;;;;5058170;28;20067;-48
2023/02/12 02:17:01;;;;;;;4.38;3.17;;;;;;;;;;5058492;28;20041;-49
2023/02/12 02:19:40;;;;;;;4.82;2.92;;;;;;;;;;5050212;28;20033;-48
2023/02/12 02:22:06;;;;;;;4.40;3.58;;;;;;;;;;5045850;28;20024;-50
2023/02/12 02:24:50;;;;;;;5.53;3.75;;;;;;;;;;5059601;28;20091;-50
2023/02/12 02:27:20;;;;;;;4.47;2.83;;;;;;;;;;5061368;28;20036;-49
2023/02/12 02:29:54;;;;;;;5.65;3.55;;;;;;;;;;5050611;28;20025;-50
2023/02/12 02:32:23;;;;;;;5.70;3.00;;;;;;;;;;5054228;28;20079;-45
2023/02/12 02:34:54;;;;;;;4.72;3.53;;;;;;;;;;5054153;28;20262;-48
2023/02/12 02:37:26;;;;;;;4.38;2.88;;;;;;;;;;5047711;28;20028;-45
2023/02/12 02:40:11;;;;;;;5.80;3.70;;;;;;;;;;5054931;28;20068;-48
2023/02/12 02:42:40;;;;;;;5.25;3.40;;;;;;;;;;5058001;28;20051;-47
2023/02/12 02:45:06;;;;;;;4.45;2.97;;;;;;;;;;5059120;28;20040;-49
2023/02/12 02:47:34;;;;;;;6.47;3.75;;;;;;;;;;5039259;28;20474;-52
2023/02/12 02:50:03;;;;;;;4.60;3.53;;;;;;;;;;5056278;28;20017;-50
2023/02/12 02:52:36;;;;;;;5.47;3.88;;;;;;;;;;5059554;28;20028;-49
2023/02/12 02:55:05;;;;;;;4.32;3.50;;;;;;;;;;5060972;28;20529;-48
2023/02/12 02:57:35;;;;;;;5.47;3.35;;;;;;;;;;5056623;28;20116;-48
2023/02/12 03:00:04;;;;;;;6.30;3.38;;;;;;;;;;5053633;28;20331;-48
2023/02/12 03:02:38;;;;;;;4.38;3.50;;;;;;;;;;5054153;28;20378;-51
2023/02/12 03:05:09;;;;;;;4.85;3.50;;;;;;;;;;5055481;28;20493;-48
2023/02/12 03:07:38;;;;;;;4.40;3.38;;;;;;;;;;5058623;28;20043;-49
2023/02/12 03:10:22;;;;;;;4.78;2.70;;;;;;;;;;5062552;28;20047;-48
2023/02/12 03:12:52;;;;;;;4.07;3.10;;;;;;;;;;5070462;28;20734;-48
2023/02/12 03:15:26;;;;;;;4.53;3.38;;;;;;;;;;5065820;28;20477;-44
2023/02/12 03:17:52;;;;;;;4.78;3.60;;;;;;;;;;5066108;28;20025;-49
2023/02/12 03:20:20;;;;;;;6.00;3.25;;;;;;;;;;5068341;28;20032;-44
2023/02/12 03:22:51;;;;;;;5.43;3.70;;;;;;;;;;5069405;28;20070;-49
2023/02/12 03:25:20;;;;;;;4.80;3.40;;;;;;;;;;5067571;28;20040;-50
2023/02/12 03:27:49;;;;;;;4.65;3.50;;;;;;;;;;5071142;28;20036;-48
2023/02/12 03:30:15;;;;;;;5.03;3.50;;;;;;;;;;5064740;28;20031;-48
2023/02/12 03:32:41;;;;;;;5.00;3.30;;;;;;;;;;5067459;28;20103;-52
2023/02/12 03:35:26;;;;;;;4.78;3.70;;;;;;;;;;5068878;28;20461;-48
2023/02/12 03:37:58;;;;;;;4.55;3.40;;;;;;;;;;5070053;28;20036;-49
2023/02/12 03:40:27;;;;;;;4.32;3.25;;;;;;;;;;5065750;28;20086;-48
2023/02/12 03:43:12;;;;;;;4.75;3.47;;;;;;;;;;5065925;28;20024;-49
2023/02/12 03:45:44;;;;;;;6.20;3.70;;;;;;;;;;5066585;28;20140;-53
2023/02/12 03:48:13;;;;;;;4.38;3.45;;;;;;;;;;5067981;28;20016;-50
2023/02/12 03:50:50;;;;;;;4.93;3.45;;;;;;;;;;5047281;28;20028;-51
2023/02/12 03:53:16;;;;;;;5.40;3.60;;;;;;;;;;5066041;28;20483;-52
2023/02/12 03:55:44;;;;;;;5.35;3.65;;;;;;;;;;5062788;28;20032;-50
2023/02/12 03:58:13;;;;;;;4.57;3.70;;;;;;;;;;5068346;28;20037;-53
2023/02/12 04:00:39;;;;;;;5.80;3.75;;;;;;;;;;5065961;28;20035;-52
2023/02/12 04:03:05;;;;;;;5.28;3.10;;;;;;;;;;5068621;28;20033;-49
2023/02/12 04:05:31;;;;;;;4.90;3.42;;;;;;;;;;5066316;28;20028;-47
2023/02/12 04:07:58;;;;;;;5.43;3.50;;;;;;;;;;5069851;28;20533;-49
2023/02/12 04:10:30;;;;;;;4.35;3.17;;;;;;;;;;5054576;28;20067;-49
2023/02/12 04:13:00;;;;;;;5.65;3.88;;;;;;;;;;5048305;28;20096;-52
2023/02/12 04:15:33;;;;;;;4.82;3.50;;;;;;;;;;5055269;28;20486;-51
2023/02/12 04:18:02;;;;;;;4.05;3.05;;;;;;;;;;5055258;28;20032;-52
2023/02/12 04:20:37;;;;;;;4.68;3.78;;;;;;;;;;5054045;28;20032;-49
2023/02/12 04:23:41;;;;;;;3.83;3.15;;;;;;;;;;5054200;28;20059;-51
2023/02/12 04:26:21;;;;;;;5.15;3.30;;;;;;;;;;4968091;28;20121;-52
2023/02/12 04:29:05;;;;;;;5.20;3.53;;;;;;;;;;4963319;28;20043;-49
2023/02/12 04:31:35;;;;;;;5.63;3.92;;;;;;;;;;4973301;28;20166;-51
2023/02/12 04:34:16;;;;;;;5.65;3.60;;;;;;;;;;4969927;28;20098;-51
2023/02/12 04:37:00;;;;;;;4.75;3.38;;;;;;;;;;4968943;28;20400;-51
2023/02/12 04:39:28;;;;;;;5.13;3.55;;;;;;;;;;4968013;28;20023;-50
2023/02/12 04:41:57;;;;;;;5.10;3.63;;;;;;;;;;4973096;28;20726;-47
2023/02/12 04:44:24;;;;;;;5.53;4.00;;;;;;;;;;4968019;28;20042;-48
2023/02/12 04:46:50;;;;;;;4.80;3.55;;;;;;;;;;4969093;28;20035;-50
2023/02/12 04:49:17;;;;;;;5.55;3.72;;;;;;;;;;4968500;28;20075;-46
2023/02/12 04:51:44;;;;;;;4.53;3.40;;;;;;;;;;4969735;28;20034;-50
2023/02/12 04:54:10;;;;;;;4.80;3.10;;;;;;;;;;4968875;28;20043;-48
2023/02/12 04:56:36;;;;;;;5.57;3.83;;;;;;;;;;5004134;28;20489;-49
2023/02/12 04:59:02;;;;;;;5.57;3.28;;;;;;;;;;5061157;28;20032;-49
2023/02/12 05:01:28;;;;;;;5.45;3.63;;;;;;;;;;5049529;28;20021;-48
2023/02/12 05:03:54;;;;;;;4.93;3.30;;;;;;;;;;5057124;28;20544;-50
2023/02/12 05:06:20;;;;;;;6.13;3.45;;;;;;;;;;5043074;28;20031;-44
2023/02/12 05:08:46;;;;;;;5.15;3.60;;;;;;;;;;5055847;28;20469;-49
2023/02/12 05:11:12;;;;;;;5.90;3.90;;;;;;;;;;5068309;28;20031;-51
2023/02/12 05:13:38;;;;;;;6.47;3.45;;;;;;;;;;5067823;28;20866;-51
2023/02/12 05:16:05;;;;;;;5.55;3.30;;;;;;;;;;5067335;28;20031;-48
2023/02/12 05:18:31;;;;;;;5.93;3.53;;;;;;;;;;5065451;28;20492;-51
2023/02/12 05:20:58;;;;;;;5.15;3.75;;;;;;;;;;5068202;28;20073;-49
2023/02/12 05:23:28;;;;;;;4.43;3.20;;;;;;;;;;5070418;28;20526;-48
2023/02/12 05:25:54;;;;;;;6.03;3.40;;;;;;;;;;5069416;28;20059;-48
2023/02/12 05:28:20;;;;;;;5.88;4.00;;;;;;;;;;5072090;28;20028;-46
2023/02/12 05:30:46;;;;;;;5.57;3.90;;;;;;;;;;5070785;28;20024;-46
2023/02/12 05:33:12;;;;;;;4.93;3.70;;;;;;;;;;5069897;28;20027;-48
2023/02/12 05:35:38;;;;;;;5.50;3.63;;;;;;;;;;5067552;28;20033;-50
2023/02/12 05:38:04;;;;;;;4.22;3.50;;;;;;;;;;5069805;28;20028;-47
2023/02/12 05:40:30;;;;;;;7.93;3.78;;;;;;;;;;5053098;28;20021;-50
2023/02/12 05:42:56;;;;;;;5.85;3.50;;;;;;;;;;5072716;28;20469;-48
2023/02/12 05:45:26;;;;;;;5.68;3.40;;;;;;;;;;5063025;28;20032;-45
2023/02/12 05:47:52;;;;;;;5.75;3.78;;;;;;;;;;5071480;28;20553;-48
2023/02/12 05:50:18;;;;;;;4.57;3.35;;;;;;;;;;5066642;28;20031;-47
2023/02/12 05:52:45;;;;;;;5.15;3.50;;;;;;;;;;5071507;28;20028;-48
2023/02/12 05:55:11;;;;;;;4.78;3.17;;;;;;;;;;5069303;28;20075;-49
2023/02/12 05:57:37;;;;;;;4.25;3.40;;;;;;;;;;5069293;28;20021;-49
2023/02/12 06:00:04;;;;;;;4.32;3.25;;;;;;;;;;5069872;28;20046;-49
2023/02/12 06:02:30;;;;;;;5.57;3.97;;;;;;;;;;5067800;28;20036;-49
2023/02/12 06:04:56;;;;;;;4.57;3.50;;;;;;;;;;5071426;28;20098;-48
2023/02/12 06:07:22;;;;;;;5.05;3.80;;;;;;;;;;5067329;28;20053;-46
2023/02/12 06:09:48;;;;;;;5.20;4.15;;;;;;;;;;5063693;28;20040;-47
2023/02/12 06:12:14;;;;;;;6.05;4.05;;;;;;;;;;5057160;28;20659;-48
2023/02/12 06:14:40;;;;;;;5.15;3.45;;;;;;;;;;5057308;28;20066;-48
2023/02/12 06:17:06;;;;;;;5.25;3.55;;;;;;;;;;5041640;28;20029;-49
2023/02/12 06:19:32;;;;;;;4.75;3.42;;;;;;;;;;5044974;28;20086;-48
2023/02/12 06:21:58;;;;;;;5.20;3.88;;;;;;;;;;5052977;28;20154;-52
2023/02/12 06:24:24;;;;;;;5.93;3.78;;;;;;;;;;5051516;28;20464;-50
2023/02/12 06:26:51;;;;;;;6.32;3.83;;;;;;;;;;5050840;28;20045;-51
2023/02/12 06:29:17;;;;;;;4.78;3.33;;;;;;;;;;5051229;28;20017;-49
2023/02/12 06:31:44;;;;;;;5.25;3.55;;;;;;;;;;5036782;28;20074;-50
2023/02/12 06:34:11;;;;;;;4.68;3.55;;;;;;;;;;5046664;28;20021;-51
2023/02/12 06:36:38;;;;;;;5.28;3.88;;;;;;;;;;5052631;28;20047;-51
2023/02/12 06:39:04;;;;;;;6.05;3.75;;;;;;;;;;5031182;28;20474;-52
2023/02/12 06:41:30;;;;;;;4.38;3.38;;;;;;;;;;5049022;28;20033;-51
2023/02/12 06:43:56;;;;;;;6.38;4.68;;;;;;;;;;5052781;28;20032;-51
2023/02/12 06:46:22;;;;;;;4.85;3.80;;;;;;;;;;5052352;28;20029;-47
2023/02/12 06:48:48;;;;;;;5.03;3.75;;;;;;;;;;5048583;28;20025;-51
2023/02/12 06:51:15;;;;;;;6.57;5.10;;;;;;;;;;5053293;28;20370;-53
2023/02/12 06:53:41;;;;;;;6.57;4.18;;;;;;;;;;5045190;28;20037;-52
2023/02/12 06:56:11;;;;;;;6.93;3.72;;;;;;;;;;5050753;28;20496;-54
2023/02/12 06:58:38;;;;;;;9.57;4.00;;;;;;;;;;5036979;28;20048;-51
2023/02/12 07:01:12;;;;;;;5.93;4.15;;;;;;;;;;5048902;28;20029;-53
2023/02/12 07:03:39;;;;;;;6.05;3.70;;;;;;;;;;5047623;28;20870;-54
2023/02/12 07:06:05;;;;;;;5.28;3.80;;;;;;;;;;5045412;28;20029;-52
2023/02/12 07:08:31;;;;;;;6.15;3.38;;;;;;;;;;5042661;28;20029;-52
2023/02/12 07:10:57;;;;;;;4.65;3.53;;;;;;;;;;5053849;28;20093;-49
2023/02/12 07:13:23;;;;;;;5.03;3.67;;;;;;;;;;5046340;28;20049;-45
2023/02/12 07:15:49;;;;;;;4.72;3.78;;;;;;;;;;5048296;28;20064;-51
2023/02/12 07:18:15;;;;;;;4.72;3.63;;;;;;;;;;5045452;28;20083;-50
2023/02/12 07:20:41;;;;;;;4.93;3.65;;;;;;;;;;5037108;28;20864;-52
2023/02/12 07:23:10;;;;;;;6.13;4.75;;;;;;;;;;5045296;28;20096;-54
2023/02/12 07:25:36;;;;;;;5.50;3.83;;;;;;;;;;5050655;28;20028;-53
2023/02/12 07:28:02;;;;;;;5.47;3.90;;;;;;;;;;5036315;28;20067;-51
2023/02/12 07:30:28;;;;;;;5.13;4.00;;;;;;;;;;5053276;28;20016;-54
2023/02/12 07:32:54;;;;;;;5.63;3.78;;;;;;;;;;5036397;28;20092;-47
2023/02/12 07:35:20;;;;;;;5.47;4.40;;;;;;;;;;5044504;28;20100;-45
2023/02/12 07:37:46;;;;;;;5.97;4.40;;;;;;;;;;5039185;28;20548;-52
2023/02/12 07:40:12;;;;;;;6.70;3.60;;;;;;;;;;5044213;28;20029;-51
2023/02/12 07:42:38;;;;;;;4.63;3.80;;;;;;;;;;5036511;28;20037;-51
2023/02/12 07:45:04;;;;;;;5.80;3.80;;;;;;;;;;5048966;28;20117;-51
2023/02/12 07:47:30;;;;;;;5.97;4.07;;;;;;;;;;5044194;28;20428;-51
2023/02/12 07:49:56;;;;;;;4.90;3.80;;;;;;;;;;5041349;28;20029;-50
2023/02/12 07:52:22;;;;;;;5.03;3.42;;;;;;;;;;5039627;28;20390;-46
2023/02/12 07:54:48;;;;;;;5.60;3.85;;;;;;;;;;5053173;28;20021;-49
2023/02/12 07:57:14;;;;;;;7.40;3.88;;;;;;;;;;5040097;28;20033;-52
2023/02/12 07:59:40;;;;;;;5.10;3.90;;;;;;;;;;5049102;28;20033;-51
2023/02/12 08:02:06;;;;;;;6.22;3.88;;;;;;;;;;5044328;28;20377;-52
2023/02/12 08:04:32;;;;;;;5.88;3.88;;;;;;;;;;5044423;28;20046;-52
2023/02/12 08:06:58;;;;;;;5.03;3.65;;;;;;;;;;5044747;28;20056;-50
2023/02/12 08:09:25;;;;;;;6.30;4.18;;;;;;;;;;5044114;28;20093;-50
2023/02/12 08:11:51;;;;;;;4.15;3.50;;;;;;;;;;5067078;28;20106;-50
2023/02/12 08:14:18;;;;;;;4.30;3.80;;;;;;;;;;5067086;28;20040;-52
2023/02/12 08:16:45;;;;;;;10.25;3.70;;;;;;;;;;5055103;28;20025;-48
2023/02/12 08:19:12;;;;;;;5.00;3.70;;;;;;;;;;5063002;28;20478;-49
2023/02/12 08:21:38;;;;;;;4.13;3.22;;;;;;;;;;5065398;28;20449;-51
2023/02/12 08:24:04;;;;;;;6.80;3.72;;;;;;;;;;5064635;28;20040;-51
2023/02/12 08:26:31;;;;;;;5.90;3.65;;;;;;;;;;5062107;28;20040;-53
2023/02/12 08:29:00;;;;;;;4.57;3.55;;;;;;;;;;5060597;28;20110;-49
2023/02/12 08:31:27;;;;;;;6.47;3.85;;;;;;;;;;5067381;28;20028;-48
2023/02/12 08:33:54;;;;;;;5.47;3.78;;;;;;;;;;5058885;28;20037;-48
2023/02/12 08:36:21;;;;;;;5.40;3.65;;;;;;;;;;5068638;28;20048;-47
2023/02/12 08:38:47;;;;;;;7.50;4.28;;;;;;;;;;5063204;28;20044;-48
2023/02/12 08:41:15;;;;;;;6.32;3.55;;;;;;;;;;5061461;28;20773;-46
2023/02/12 08:43:41;;;;;;;5.00;3.90;;;;;;;;;;5062233;28;20037;-47
2023/02/12 08:46:07;;;;;;;4.82;4.07;;;;;;;;;;5066068;28;20401;-51
2023/02/12 08:48:33;;;;;;;5.88;4.05;;;;;;;;;;5060255;28;20032;-48
2023/02/12 08:51:07;;;;;;;6.75;4.32;;;;;;;;;;5069378;28;20025;-53
2023/02/12 08:53:33;;;;;;;5.03;3.72;;;;;;;;;;5059281;28;20044;-51
2023/02/12 08:55:59;;;;;;;6.35;3.65;;;;;;;;;;5057959;28;20033;-51
2023/02/12 08:58:25;;;;;;;4.57;3.50;;;;;;;;;;5060267;28;20056;-45
2023/02/12 09:00:51;;;;;;;5.50;3.80;;;;;;;;;;5066390;28;20020;-49
2023/02/12 09:03:17;;;;;;;9.15;4.18;;;;;;;;;;5065841;28;20073;-50
2023/02/12 09:05:43;;;;;;;4.82;3.78;;;;;;;;;;5066357;28;20117;-52
2023/02/12 09:08:09;;;;;;;5.22;3.75;;;;;;;;;;5068099;28;20171;-53
2023/02/12 09:10:42;;;;;;;4.63;3.38;;;;;;;;;;5066998;28;20056;-50
2023/02/12 09:13:09;;;;;;;5.07;3.42;;;;;;;;;;5073264;28;20205;-48
2023/02/12 09:15:39;;;;;;;9.13;4.60;;;;;;;;;;5072887;28;20129;-52
2023/02/12 09:18:05;;;;;;;5.30;3.92;;;;;;;;;;5071209;28;20041;-49
2023/02/12 09:20:31;;;;;;;5.32;3.83;;;;;;;;;;5055406;28;20040;-53
2023/02/12 09:22:58;;;;;;;6.25;4.18;;;;;;;;;;5062747;28;20065;-52
2023/02/12 09:25:24;;;;;;;5.55;3.85;;;;;;;;;;5053833;28;20486;-49
2023/02/12 09:27:50;;;;;;;8.30;4.13;;;;;;;;;;5058202;28;20039;-45
2023/02/12 09:30:16;;;;;;;6.30;4.18;;;;;;;;;;5062322;28;20041;-47
2023/02/12 09:32:42;;;;;;;10.38;4.13;;;;;;;;;;5056122;28;20067;-46
2023/02/12 09:35:10;;;;;;;6.43;3.60;;;;;;;;;;5066657;28;20122;-46
2023/02/12 09:37:36;;;;;;;6.85;4.10;;;;;;;;;;5041253;28;20110;-49
2023/02/12 09:40:02;;;;;;;6.93;3.70;;;;;;;;;;5060876;28;20497;-48
2023/02/12 09:42:35;;;;;;;6.20;3.97;;;;;;;;;;5052914;28;20029;-50
2023/02/12 09:45:16;;;;;;;5.00;3.47;;;;;;;;;;5065611;28;20481;-50
2023/02/12 09:47:46;;;;;;;6.75;4.47;;;;;;;;;;5054058;28;20061;-49
2023/02/12 09:50:12;;;;;;;8.55;3.40;;;;;;;;;;5070629;28;20028;-48
2023/02/12 09:52:38;;;;;;;4.95;4.03;;;;;;;;;;5066540;28;20408;-49
2023/02/12 09:55:05;;;;;;;4.82;3.25;;;;;;;;;;5060630;28;20028;-48
2023/02/12 09:57:35;;;;;;;6.38;3.47;;;;;;;;;;5057567;28;20093;-48
2023/02/12 10:00:05;;;;;;;5.32;3.90;;;;;;;;;;5059179;28;20103;-46
2023/02/12 10:02:33;;;;;;;10.73;3.47;;;;;;;;;;5062240;28;20071;-48
2023/02/12 10:04:59;;;;;;;5.07;3.70;;;;;;;;;;5065194;28;20440;-48
2023/02/12 10:07:57;;;;;;;9.80;3.60;;;;;;;;;;5059829;28;20024;-46
2023/02/12 10:10:38;;;;;;;5.18;2.97;;;;;;;;;;5001154;28;20057;-48
2023/02/12 10:13:07;;;;;;;5.03;3.58;;;;;;;;;;5053690;28;20025;-52
2023/02/12 10:15:45;;;;;;;6.65;3.80;;;;;;;;;;5045902;28;20041;-49
2023/02/12 10:18:30;;;;;;;3.30;2.72;;;;;;;;;;5045779;28;20485;-46
2023/02/12 10:21:14;;;;;;;7.82;4.15;;;;;;;;;;5050453;28;20068;-47
2023/02/12 10:23:40;;;;;;;15.05;5.95;;;;;;;;;;5051351;28;20047;-49
2023/02/12 10:26:06;;;;;;;6.82;5.03;;;;;;;;;;5053661;28;20036;-52
2023/02/12 10:28:34;;;;;;;15.05;6.38;;;;;;;;;;5050274;28;20029;-52
2023/02/12 10:31:02;;;;;;;18.73;7.13;;;;;;;;;;5053520;28;20069;-48
2023/02/12 10:33:36;;;;;;;12.30;5.85;;;;;;;;;;5049434;28;20017;-49
2023/02/12 10:36:11;;;;;;;10.45;5.82;;;;;;;;;;5045451;28;20029;-52
2023/02/12 10:38:39;;;;;;;8.77;4.82;;;;;;;;;;5049310;28;20022;-50
2023/02/12 10:41:05;;;;;;;8.13;4.85;;;;;;;;;;5046301;28;20029;-51
2023/02/12 10:43:31;;;;;;;10.85;5.00;;;;;;;;;;5051153;28;20143;-47
2023/02/12 10:45:57;;;;;;;9.82;5.18;;;;;;;;;;5053534;28;20044;-48
2023/02/12 10:48:35;;;;;;;10.95;5.35;;;;;;;;;;5050870;28;20025;-45
2023/02/12 10:51:07;;;;;;;8.15;4.68;;;;;;;;;;5052978;28;20044;-47
2023/02/12 10:53:44;;;;;;;8.40;4.57;;;;;;;;;;5048920;28;20492;-48
2023/02/12 10:56:10;;;;;;;7.75;4.07;;;;;;;;;;5050669;28;20095;-46
2023/02/12 10:58:37;;;;;;;6.18;3.70;;;;;;;;;;5050203;28;20084;-47
2023/02/12 11:01:03;;;;;;;7.88;4.63;;;;;;;;;;5048365;28;20037;-47
2023/02/12 11:03:33;;;;;;;6.88;4.30;;;;;;;;;;5042690;28;20034;-47
2023/02/12 11:06:10;;;;;;;6.60;4.10;;;;;;;;;;5050413;28;20090;-50
2023/02/12 11:08:38;;;;;;;7.45;3.67;;;;;;;;;;5051907;28;20418;-47
2023/02/12 11:11:09;;;;;;;8.70;3.22;;;;;;;;;;5072948;28;20036;-49
2023/02/12 11:13:36;;;;;;;7.90;3.42;;;;;;;;;;5059522;28;20017;-48
2023/02/12 11:16:02;;;;;;;8.18;3.78;;;;;;;;;;5076209;28;20105;-48
2023/02/12 11:18:31;;;;;;;6.07;3.50;;;;;;;;;;5078827;28;20378;-50
2023/02/12 11:21:03;;;;;;;7.45;4.18;;;;;;;;;;5071210;28;20032;-47
2023/02/12 11:23:37;;;;;;;7.75;3.45;;;;;;;;;;5067063;28;20381;-47
2023/02/12 11:26:03;;;;;;;5.88;4.05;;;;;;;;;;5066072;28;20053;-47
2023/02/12 11:28:30;;;;;;;4.90;3.17;;;;;;;;;;5065294;28;20043;-52
2023/02/12 11:31:26;;;;;;;9.63;4.20;;;;;;;;;;5064444;28;20043;-50
2023/02/12 11:34:04;;;;;;;5.60;3.40;;;;;;;;;;5052723;28;20031;-47
2023/02/12 11:36:32;;;;;;;4.80;3.10;;;;;;;;;;5067064;28;20039;-45
2023/02/12 11:38:59;;;;;;;4.38;2.65;;;;;;;;;;5067699;28;20047;-48
2023/02/12 11:41:33;;;;;;;6.95;3.75;;;;;;;;;;5067285;28;20036;-48
2023/02/12 11:43:59;;;;;;;5.93;3.55;;;;;;;;;;5064297;28;20029;-49
2023/02/12 11:46:26;;;;;;;7.13;2.92;;;;;;;;;;5063726;28;20052;-47
2023/02/12 11:48:53;;;;;;;5.15;3.00;;;;;;;;;;5059866;28;20100;-49
2023/02/12 11:51:24;;;;;;;5.05;3.13;;;;;;;;;;5061254;28;20052;-42
2023/02/12 11:53:52;;;;;;;5.47;3.33;;;;;;;;;;5060295;28;20029;-46
2023/02/12 11:56:19;;;;;;;5.63;2.42;;;;;;;;;;5068488;28;20024;-48
2023/02/12 11:58:46;;;;;;;4.40;2.70;;;;;;;;;;5065025;28;20032;-46
2023/02/12 12:01:15;;;;;;;5.60;2.78;;;;;;;;;;5068329;28;20040;-46
2023/02/12 12:03:50;;;;;;;5.55;2.65;;;;;;;;;;5063813;28;20032;-45
2023/02/12 12:06:22;;;;;;;3.90;2.20;;;;;;;;;;5060245;28;20397;-46
2023/02/12 12:08:55;;;;;;;6.75;2.25;;;;;;;;;;5062492;28;20104;-47
2023/02/12 12:11:26;;;;;;;3.60;2.53;;;;;;;;;;5060737;28;20056;-49
2023/02/12 12:13:55;;;;;;;4.63;2.55;;;;;;;;;;5064592;28;20021;-47
2023/02/12 12:22:20;;;;;;;5.00;3.25;;;;;;;;;;5065045;28;20104;-48
2023/02/12 12:24:58;;;;;;;3.30;2.70;;;;;;;;;;5061465;28;20074;-47
2023/02/12 12:30:32;;;;;;;4.05;2.28;;;;;;;;;;5061445;28;20116;-44
2023/02/12 12:33:00;;;;;;;3.13;2.17;;;;;;;;;;5019608;28;20226;-45
2023/02/12 12:35:35;;;;;;;3.78;2.47;;;;;;;;;;5048980;28;20028;-47
2023/02/12 12:38:06;;;;;;;3.85;2.40;;;;;;;;;;5067710;28;20872;-48
2023/02/12 12:40:32;;;;;;;3.20;2.13;;;;;;;;;;5061950;28;20071;-47
2023/02/12 12:43:02;;;;;;;3.67;2.10;;;;;;;;;;5065216;28;20024;-48
2023/02/12 12:45:28;;;;;;;5.20;2.40;;;;;;;;;;5062854;28;20468;-46
2023/02/12 12:48:10;;;;;;;5.85;2.22;;;;;;;;;;5067618;28;20100;-47
2023/02/12 12:50:54;;;;;;;4.28;2.60;;;;;;;;;;5064529;28;20035;-44
2023/02/12 12:53:26;;;;;;;4.60;2.47;;;;;;;;;;5067514;28;20104;-44
2023/02/12 12:55:52;;;;;;;;;;;;;;;;;;5057898;28;20485;-49
2023/02/12 12:58:36;;;;;;;4.95;2.13;;;;;;;;;;5056664;28;19990;-49
2023/02/12 13:01:06;;;;;;;3.50;2.13;;;;;;;;;;5062265;28;20051;-47
2023/02/12 13:03:32;;;;;;;3.35;2.63;;;;;;;;;;5068241;28;20036;-47
2023/02/12 13:06:16;;;;;;;4.45;2.42;;;;;;;;;;5066141;28;20048;-48
2023/02/12 13:08:51;;;;;;;3.00;2.13;;;;;;;;;;5060927;28;20135;-47
2023/02/12 13:11:23;;;;;;;3.40;2.28;;;;;;;;;;5066006;28;20049;-48
2023/02/12 13:13:51;;;;;;;3.13;2.45;;;;;;;;;;5060404;28;20099;-49
2023/02/12 13:16:22;;;;;;;3.70;2.05;;;;;;;;;;5065232;28;20478;-49
2023/02/12 13:19:02;;;;;;;3.15;1.60;;;;;;;;;;5062491;28;20478;-47
2023/02/12 13:21:41;;;;;;;3.33;1.88;;;;;;;;;;5067511;28;20039;-49
2023/02/12 13:24:12;;;;;;;2.67;1.85;;;;;;;;;;5068938;28;20108;-48
2023/02/12 13:26:47;;;;;;;2.78;1.80;;;;;;;;;;5062362;28;20554;-45
2023/02/12 13:29:19;;;;;;;3.88;1.83;;;;;;;;;;5062015;28;20390;-45
2023/02/12 13:31:48;;;;;;;3.20;2.03;;;;;;;;;;5060726;28;20062;-51
2023/02/12 13:34:16;;;;;;;2.63;2.17;;;;;;;;;;5068549;28;20381;-47
2023/02/12 13:36:42;;;;;;;5.45;2.10;;;;;;;;;;5065472;28;20029;-49
2023/02/12 13:39:14;;;;;;;4.35;2.30;;;;;;;;;;5063973;28;20028;-49
2023/02/12 13:41:42;;;;;;;3.58;1.90;;;;;;;;;;5054600;28;20119;-47
2023/02/12 13:44:20;;;;;;;5.30;1.90;;;;;;;;;;5072314;28;20028;-49
2023/02/12 13:46:46;;;;;;;3.85;1.85;;;;;;;;;;5068154;28;20036;-53
2023/02/12 13:49:12;;;;;;;2.80;1.50;;;;;;;;;;5072280;28;20417;-52
2023/02/12 13:51:46;;;;;;;20.35;2.42;;;;;;;;;;5063685;28;20089;-47
2023/02/12 13:54:31;;;;;;;3.33;2.10;;;;;;;;;;5069992;28;20074;-49
2023/02/12 13:57:00;;;;;;;2.25;1.55;;;;;;;;;;5066929;28;20024;-52
2023/02/12 13:59:32;;;;;;;3.10;1.52;;;;;;;;;;5065437;28;20017;-53
2023/02/12 14:02:02;;;;;;;3.05;2.08;;;;;;;;;;5065948;28;20381;-47
2023/02/12 14:04:28;;;;;;;2.97;1.90;;;;;;;;;;5069719;28;20025;-49
2023/02/12 14:06:58;;;;;;;3.17;1.85;;;;;;;;;;5073333;28;20569;-50
2023/02/12 14:09:34;;;;;;;3.05;1.70;;;;;;;;;;5072056;28;20406;-47
2023/02/12 14:12:01;;;;;;;2.67;1.77;;;;;;;;;;5073782;28;20035;-46
2023/02/12 14:14:32;;;;;;;2.33;1.50;;;;;;;;;;5066997;28;20478;-49
2023/02/12 14:17:18;;;;;;;2.67;1.67;;;;;;;;;;5060721;28;20036;-51
2023/02/12 14:19:50;;;;;;;2.85;1.80;;;;;;;;;;5071507;28;20082;-49
2023/02/12 14:22:25;;;;;;;1.77;1.50;;;;;;;;;;5074091;28;20044;-50
2023/02/12 14:24:53;;;;;;;2.03;1.63;;;;;;;;;;5073475;28;20027;-53
2023/02/12 14:27:21;;;;;;;2.92;1.60;;;;;;;;;;5065051;28;20032;-51
2023/02/12 14:30:06;;;;;;;2.10;1.48;;;;;;;;;;5054939;28;20052;-47
2023/02/12 14:32:41;;;;;;;2.60;1.45;;;;;;;;;;5064422;28;20039;-53
2023/02/12 14:35:28;;;;;;;1.70;1.20;;;;;;;;;;5067108;28;20039;-49
2023/02/12 14:37:59;;;;;;;2.10;1.58;;;;;;;;;;5063342;28;20032;-47
2023/02/12 14:40:33;;;;;;;2.38;1.75;;;;;;;;;;5069306;28;20056;-46
2023/02/12 14:43:22;;;;;;;3.25;1.55;;;;;;;;;;5060995;28;20530;-48
2023/02/12 14:45:48;;;;;;;2.08;1.40;;;;;;;;;;5061701;28;20045;-46
2023/02/12 14:48:33;;;;;;;2.88;1.25;;;;;;;;;;5056103;28;20090;-50
2023/02/12 14:51:01;;;;;;;3.40;1.73;;;;;;;;;;5058967;28;20064;-51
2023/02/12 14:53:32;;;;;;;1.70;1.45;;;;;;;;;;5063023;28;20087;-52
2023/02/12 14:55:59;;;;;;;2.97;1.37;;;;;;;;;;5063017;28;20096;-51
2023/02/12 14:58:29;;;;;;;4.18;1.65;;;;;;;;;;5067347;28;20345;-44
2023/02/12 15:00:56;;;;;;;3.40;1.90;;;;;;;;;;5063169;28;20552;-50
2023/02/12 15:03:25;;;;;;;4.28;1.48;;;;;;;;;;5064487;28;20042;-46
2023/02/12 15:05:57;;;;;;;3.95;1.50;;;;;;;;;;5068472;28;20522;-47
2023/02/12 15:08:23;;;;;;;;;;;;;;;;;;5061164;28;20123;-46